createdAt,value
2022-11-20T00:00:29.563Z,-7.22
2022-11-20T00:01:29.575Z,-7.33
2022-11-20T00:02:29.544Z,-7.23
2022-11-20T00:03:29.538Z,-7.25
2022-11-20T00:04:29.527Z,-7.22
2022-11-20T00:05:29.526Z,-7.31
2022-11-20T00:06:29.541Z,-7.25
2022-11-20T00:07:29.596Z,-7.33
2022-11-20T00:08:29.501Z,-7.31
2022-11-20T00:09:29.494Z,-7.33
2022-11-20T00:10:29.485Z,-7.38
2022-11-20T00:11:29.508Z,-7.38
2022-11-20T00:12:29.482Z,-7.35
2022-11-20T00:13:29.484Z,-7.29
2022-11-20T00:14:29.463Z,-7.29
2022-11-20T00:15:29.452Z,-7.33
2022-11-20T00:16:29.469Z,-7.31
2022-11-20T00:17:29.426Z,-7.36
2022-11-20T00:18:30.432Z,-7.33
2022-11-20T00:19:29.425Z,-7.38
2022-11-20T00:20:29.417Z,-7.43
2022-11-20T00:21:29.439Z,-7.35
2022-11-20T00:22:29.401Z,-7.33
2022-11-20T00:23:29.396Z,-7.42
2022-11-20T00:24:29.383Z,-7.40
2022-11-20T00:25:29.377Z,-7.33
2022-11-20T00:26:29.395Z,-7.42
2022-11-20T00:27:29.373Z,-7.40
2022-11-20T00:28:29.360Z,-7.43
2022-11-20T00:29:29.348Z,-7.31
2022-11-20T00:30:29.342Z,-7.32
2022-11-20T00:31:29.358Z,-7.42
2022-11-20T00:32:29.326Z,-7.36
2022-11-20T00:33:29.320Z,-7.42
2022-11-20T00:34:29.309Z,-7.33
2022-11-20T00:35:29.307Z,-7.43
2022-11-20T00:36:29.328Z,-7.31
2022-11-20T00:37:29.291Z,-7.36
2022-11-20T00:38:29.281Z,-7.32
2022-11-20T00:39:29.282Z,-7.40
2022-11-20T00:40:29.271Z,-7.35
2022-11-20T00:41:29.288Z,-7.42
2022-11-20T00:42:29.257Z,-7.29
2022-11-20T00:43:29.250Z,-7.29
2022-11-20T00:44:29.242Z,-7.21
2022-11-20T00:45:29.237Z,-7.18
2022-11-20T00:46:29.254Z,-7.21
2022-11-20T00:47:29.217Z,-7.13
2022-11-20T00:48:29.217Z,-7.10
2022-11-20T00:49:29.208Z,-6.92
2022-11-20T00:50:29.199Z,-6.90
2022-11-20T00:51:29.219Z,-6.81
2022-11-20T00:52:29.182Z,-6.75
2022-11-20T00:53:29.175Z,-6.71
2022-11-20T00:54:29.168Z,-6.66
2022-11-20T00:55:29.160Z,-6.76
2022-11-20T00:56:29.176Z,-6.61
2022-11-20T00:57:29.147Z,-6.53
2022-11-20T00:58:29.169Z,-6.49
2022-11-20T00:59:29.135Z,-6.39
2022-11-20T01:00:29.132Z,-6.29
2022-11-20T01:01:29.186Z,-6.29
2022-11-20T01:02:29.114Z,-6.24
2022-11-20T01:03:29.103Z,-6.28
2022-11-20T01:04:29.104Z,-6.10
2022-11-20T01:05:29.095Z,-6.21
2022-11-20T01:06:29.088Z,-6.17
2022-11-20T01:07:29.137Z,-6.02
2022-11-20T01:08:29.065Z,-6.08
2022-11-20T01:09:29.059Z,-5.97
2022-11-20T01:10:29.051Z,-5.86
2022-11-20T01:11:29.050Z,-5.90
2022-11-20T01:12:29.062Z,-5.84
2022-11-20T01:13:29.034Z,-5.85
2022-11-20T01:14:29.016Z,-5.78
2022-11-20T01:15:30.015Z,-5.74
2022-11-20T01:16:29.012Z,-5.84
2022-11-20T01:17:29.025Z,-5.76
2022-11-20T01:18:28.998Z,-5.68
2022-11-20T01:19:28.997Z,-5.66
2022-11-20T01:20:28.979Z,-5.60
2022-11-20T01:21:28.976Z,-5.58
2022-11-20T01:22:28.996Z,-5.56
2022-11-20T01:23:28.970Z,-5.56
2022-11-20T01:24:28.957Z,-5.49
2022-11-20T01:25:28.951Z,-5.56
2022-11-20T01:26:28.952Z,-5.51
2022-11-20T01:27:28.960Z,-5.40
2022-11-20T01:28:28.935Z,-5.47
2022-11-20T01:29:28.924Z,-5.51
2022-11-20T01:30:28.915Z,-5.36
2022-11-20T01:31:28.909Z,-5.40
2022-11-20T01:32:28.926Z,-5.40
2022-11-20T01:33:28.889Z,-5.38
2022-11-20T01:34:28.887Z,-5.35
2022-11-20T01:35:28.882Z,-5.25
2022-11-20T01:36:28.871Z,-5.38
2022-11-20T01:37:28.890Z,-5.28
2022-11-20T01:38:28.857Z,-5.35
2022-11-20T01:39:28.851Z,-5.35
2022-11-20T01:40:28.844Z,-5.36
2022-11-20T01:41:28.837Z,-5.29
2022-11-20T01:42:28.854Z,-5.33
2022-11-20T01:43:28.826Z,-5.36
2022-11-20T01:44:28.817Z,-5.28
2022-11-20T01:45:28.807Z,-5.18
2022-11-20T01:46:28.799Z,-5.25
2022-11-20T01:47:28.823Z,-5.19
2022-11-20T01:48:28.792Z,-5.17
2022-11-20T01:49:28.778Z,-5.13
2022-11-20T01:50:28.773Z,-5.17
2022-11-20T01:51:28.763Z,-5.02
2022-11-20T01:52:28.780Z,-5.06
2022-11-20T01:53:28.750Z,-5.05
2022-11-20T01:54:28.744Z,-5.06
2022-11-20T01:55:28.737Z,-4.96
2022-11-20T01:56:28.730Z,-4.92
2022-11-20T01:57:28.750Z,-5.08
2022-11-20T01:58:28.715Z,-4.98
2022-11-20T01:59:28.708Z,-4.88
2022-11-20T02:00:28.698Z,-4.98
2022-11-20T02:01:28.746Z,-4.95
2022-11-20T02:02:28.711Z,-4.82
2022-11-20T02:03:28.681Z,-4.89
2022-11-20T02:04:28.672Z,-4.85
2022-11-20T02:05:28.668Z,-4.79
2022-11-20T02:06:28.655Z,-4.77
2022-11-20T02:07:28.742Z,-4.75
2022-11-20T02:08:28.648Z,-4.84
2022-11-20T02:09:28.637Z,-4.71
2022-11-20T02:10:28.629Z,-4.70
2022-11-20T02:11:28.628Z,-4.71
2022-11-20T02:12:28.638Z,-4.67
2022-11-20T02:13:28.602Z,-4.49
2022-11-20T02:14:28.607Z,-4.57
2022-11-20T02:15:30.433Z,-4.63
2022-11-20T02:16:29.584Z,-4.63
2022-11-20T02:17:28.601Z,-4.57
2022-11-20T02:18:28.599Z,-4.42
2022-11-20T02:19:28.568Z,-4.41
2022-11-20T02:20:28.560Z,-4.35
2022-11-20T02:21:28.548Z,-4.43
2022-11-20T02:22:28.566Z,-4.43
2022-11-20T02:23:28.534Z,-4.48
2022-11-20T02:24:28.530Z,-4.41
2022-11-20T02:25:28.521Z,-4.35
2022-11-20T02:26:28.512Z,-4.45
2022-11-20T02:27:28.535Z,-4.49
2022-11-20T02:28:28.496Z,-4.39
2022-11-20T02:29:28.490Z,-4.30
2022-11-20T02:30:28.484Z,-4.45
2022-11-20T02:31:28.477Z,-4.45
2022-11-20T02:32:28.468Z,-4.35
2022-11-20T02:33:28.485Z,-4.30
2022-11-20T02:34:28.455Z,-4.45
2022-11-20T02:35:28.444Z,-4.46
2022-11-20T02:36:28.436Z,-4.41
2022-11-20T02:37:28.451Z,-4.35
2022-11-20T02:38:28.417Z,-4.38
2022-11-20T02:39:28.413Z,-4.46
2022-11-20T02:40:28.404Z,-4.39
2022-11-20T02:41:28.400Z,-4.34
2022-11-20T02:42:28.393Z,-4.41
2022-11-20T02:43:28.407Z,-4.31
2022-11-20T02:44:28.376Z,-4.45
2022-11-20T02:45:28.372Z,-4.53
2022-11-20T02:46:28.364Z,-4.41
2022-11-20T02:47:28.357Z,-4.42
2022-11-20T02:48:33.572Z,-4.38
2022-11-20T02:49:30.341Z,-4.32
2022-11-20T02:50:28.331Z,-4.39
2022-11-20T02:51:28.325Z,-4.39
2022-11-20T02:52:28.320Z,-4.28
2022-11-20T02:53:28.333Z,-4.35
2022-11-20T02:54:28.302Z,-4.34
2022-11-20T02:55:28.296Z,-4.28
2022-11-20T02:56:28.282Z,-4.22
2022-11-20T02:57:28.277Z,-4.28
2022-11-20T02:58:28.291Z,-4.24
2022-11-20T02:59:28.266Z,-4.21
2022-11-20T03:00:28.257Z,-4.16
2022-11-20T03:01:28.282Z,-4.14
2022-11-20T03:02:28.240Z,-4.16
2022-11-20T03:03:28.255Z,-4.21
2022-11-20T03:04:28.226Z,-4.13
2022-11-20T03:05:28.220Z,-4.09
2022-11-20T03:06:28.209Z,-4.14
2022-11-20T03:07:28.264Z,-4.09
2022-11-20T03:08:28.221Z,-4.14
2022-11-20T03:09:28.189Z,-4.07
2022-11-20T03:10:28.182Z,-4.04
2022-11-20T03:11:28.181Z,-3.89
2022-11-20T03:12:28.166Z,-3.93
2022-11-20T03:13:28.183Z,-3.85
2022-11-20T03:14:28.149Z,-3.91
2022-11-20T03:15:28.142Z,-3.89
2022-11-20T03:16:28.137Z,-3.78
2022-11-20T03:17:28.129Z,-3.86
2022-11-20T03:18:28.149Z,-3.80
2022-11-20T03:19:28.111Z,-3.88
2022-11-20T03:20:28.109Z,-3.86
2022-11-20T03:21:28.103Z,-3.91
2022-11-20T03:22:28.097Z,-3.86
2022-11-20T03:23:28.115Z,-3.89
2022-11-20T03:24:28.080Z,-3.83
2022-11-20T03:25:28.073Z,-3.83
2022-11-20T03:26:28.066Z,-3.88
2022-11-20T03:27:28.053Z,-3.91
2022-11-20T03:28:28.070Z,-3.80
2022-11-20T03:29:28.046Z,-3.85
2022-11-20T03:30:30.713Z,-3.82
2022-11-20T03:31:29.028Z,-3.72
2022-11-20T03:32:28.015Z,-3.69
2022-11-20T03:33:28.033Z,-3.59
2022-11-20T03:34:28.004Z,-3.67
2022-11-20T03:35:27.998Z,-3.59
2022-11-20T03:36:27.975Z,-3.66
2022-11-20T03:37:28.979Z,-3.55
2022-11-20T03:38:27.994Z,-3.61
2022-11-20T03:39:27.967Z,-3.67
2022-11-20T03:40:27.957Z,-3.66
2022-11-20T03:41:27.954Z,-3.59
2022-11-20T03:42:27.944Z,-3.67
2022-11-20T03:43:27.960Z,-3.54
2022-11-20T03:44:27.927Z,-3.51
2022-11-20T03:45:27.919Z,-3.45
2022-11-20T03:46:27.908Z,-3.45
2022-11-20T03:47:27.903Z,-3.45
2022-11-20T03:48:27.923Z,-3.45
2022-11-20T03:49:27.892Z,-3.40
2022-11-20T03:50:27.900Z,-3.38
2022-11-20T03:51:27.878Z,-3.22
2022-11-20T03:52:27.872Z,-3.34
2022-11-20T03:53:27.896Z,-3.40
2022-11-20T03:54:27.852Z,-3.35
2022-11-20T03:55:27.847Z,-3.34
2022-11-20T03:56:27.844Z,-3.37
2022-11-20T03:57:27.838Z,-3.34
2022-11-20T03:58:27.946Z,-3.37
2022-11-20T03:59:27.817Z,-3.44
2022-11-20T04:00:27.812Z,-3.38
2022-11-20T04:01:27.835Z,-3.48
2022-11-20T04:02:27.797Z,-3.51
2022-11-20T04:03:27.790Z,-3.49
2022-11-20T04:04:27.804Z,-3.46
2022-11-20T04:05:27.771Z,-3.55
2022-11-20T04:06:27.768Z,-3.54
2022-11-20T04:07:27.821Z,-3.54
2022-11-20T04:08:27.752Z,-3.56
2022-11-20T04:09:27.767Z,-3.56
2022-11-20T04:10:27.734Z,-3.51
2022-11-20T04:11:27.730Z,-3.49
2022-11-20T04:12:27.723Z,-3.61
2022-11-20T04:13:27.715Z,-3.66
2022-11-20T04:14:27.730Z,-3.59
2022-11-20T04:15:27.700Z,-3.54
2022-11-20T04:16:27.699Z,-3.61
2022-11-20T04:17:27.685Z,-3.61
2022-11-20T04:18:27.680Z,-3.64
2022-11-20T04:19:27.700Z,-3.66
2022-11-20T04:20:27.665Z,-3.58
2022-11-20T04:21:27.660Z,-3.58
2022-11-20T04:22:27.650Z,-3.48
2022-11-20T04:23:28.978Z,-3.64
2022-11-20T04:24:28.667Z,-3.56
2022-11-20T04:25:27.632Z,-3.61
2022-11-20T04:26:27.611Z,-3.63
2022-11-20T04:27:28.621Z,-3.51
2022-11-20T04:28:27.607Z,-3.49
2022-11-20T04:29:27.624Z,-3.41
2022-11-20T04:30:27.603Z,-3.38
2022-11-20T04:31:27.585Z,-3.34
2022-11-20T04:32:27.576Z,-3.33
2022-11-20T04:33:28.974Z,-3.35
2022-11-20T04:34:29.592Z,-3.33
2022-11-20T04:35:27.558Z,-3.40
2022-11-20T04:36:27.548Z,-3.31
2022-11-20T04:37:27.541Z,-3.23
2022-11-20T04:38:27.535Z,-3.33
2022-11-20T04:39:27.552Z,-3.25
2022-11-20T04:40:27.522Z,-3.20
2022-11-20T04:41:27.511Z,-3.17
2022-11-20T04:42:27.510Z,-3.20
2022-11-20T04:43:27.504Z,-3.20
2022-11-20T04:44:27.516Z,-3.19
2022-11-20T04:45:27.482Z,-3.15
2022-11-20T04:46:27.480Z,-3.10
2022-11-20T04:47:27.470Z,-3.15
2022-11-20T04:48:27.464Z,-3.04
2022-11-20T04:49:27.496Z,-3.01
2022-11-20T04:50:27.449Z,-3.12
2022-11-20T04:51:27.440Z,-3.01
2022-11-20T04:52:27.434Z,-2.95
2022-11-20T04:53:27.427Z,-2.97
2022-11-20T04:54:27.447Z,-2.98
2022-11-20T04:55:27.416Z,-2.94
2022-11-20T04:56:27.407Z,-3.01
2022-11-20T04:57:27.400Z,-2.98
2022-11-20T04:58:27.392Z,-2.95
2022-11-20T04:59:27.407Z,-2.91
2022-11-20T05:00:27.650Z,-3.01
2022-11-20T05:01:27.390Z,-2.98
2022-11-20T05:02:28.364Z,-2.98
2022-11-20T05:03:27.354Z,-2.92
2022-11-20T05:04:27.434Z,-2.91
2022-11-20T05:05:27.346Z,-2.92
2022-11-20T05:06:27.333Z,-2.95
2022-11-20T05:07:27.385Z,-2.89
2022-11-20T05:08:27.321Z,-2.89
2022-11-20T05:09:27.341Z,-2.98
2022-11-20T05:10:27.324Z,-2.80
2022-11-20T05:11:27.295Z,-2.80
2022-11-20T05:12:27.289Z,-2.88
2022-11-20T05:13:27.280Z,-2.80
2022-11-20T05:14:27.302Z,-2.80
2022-11-20T05:15:27.268Z,-2.76
2022-11-20T05:16:27.253Z,-2.77
2022-11-20T05:17:27.251Z,-2.73
2022-11-20T05:18:27.240Z,-2.76
2022-11-20T05:19:27.268Z,-2.84
2022-11-20T05:20:27.223Z,-2.70
2022-11-20T05:21:27.219Z,-2.73
2022-11-20T05:22:27.215Z,-2.74
2022-11-20T05:23:27.211Z,-2.71
2022-11-20T05:24:27.203Z,-2.65
2022-11-20T05:25:27.218Z,-2.78
2022-11-20T05:26:27.182Z,-2.62
2022-11-20T05:27:27.177Z,-2.73
2022-11-20T05:28:27.170Z,-2.73
2022-11-20T05:29:27.164Z,-2.69
2022-11-20T05:30:27.198Z,-2.74
2022-11-20T05:31:28.446Z,-2.83
2022-11-20T05:32:28.138Z,-2.74
2022-11-20T05:33:27.135Z,-2.59
2022-11-20T05:34:27.130Z,-2.63
2022-11-20T05:35:27.142Z,-2.65
2022-11-20T05:36:27.112Z,-2.76
2022-11-20T05:37:27.107Z,-2.81
2022-11-20T05:38:27.098Z,-2.70
2022-11-20T05:39:27.085Z,-2.91
2022-11-20T05:40:27.109Z,-2.92
2022-11-20T05:41:27.066Z,-2.83
2022-11-20T05:42:27.065Z,-2.92
2022-11-20T05:43:27.058Z,-2.98
2022-11-20T05:44:27.049Z,-2.97
2022-11-20T05:45:27.064Z,-2.99
2022-11-20T05:46:29.260Z,-3.06
2022-11-20T05:47:28.022Z,-3.12
2022-11-20T05:48:27.017Z,-3.17
2022-11-20T05:49:27.005Z,-3.13
2022-11-20T05:50:27.022Z,-3.12
2022-11-20T05:51:26.994Z,-3.06
2022-11-20T05:52:26.983Z,-2.98
2022-11-20T05:53:27.848Z,-2.92
2022-11-20T05:54:27.970Z,-2.91
2022-11-20T05:55:26.988Z,-2.95
2022-11-20T05:56:26.956Z,-2.86
2022-11-20T05:57:26.947Z,-2.83
2022-11-20T05:58:26.942Z,-2.88
2022-11-20T05:59:26.936Z,-2.92
2022-11-20T06:00:26.955Z,-2.92
2022-11-20T06:01:26.927Z,-2.86
2022-11-20T06:02:26.939Z,-2.88
2022-11-20T06:03:26.907Z,-2.83
2022-11-20T06:04:26.901Z,-2.84
2022-11-20T06:05:26.912Z,-2.78
2022-11-20T06:06:26.888Z,-2.76
2022-11-20T06:07:26.918Z,-2.71
2022-11-20T06:08:26.862Z,-2.86
2022-11-20T06:09:26.858Z,-2.66
2022-11-20T06:10:26.880Z,-2.76
2022-11-20T06:11:26.841Z,-2.73
2022-11-20T06:12:26.847Z,-2.80
2022-11-20T06:13:26.830Z,-2.63
2022-11-20T06:14:26.821Z,-2.74
2022-11-20T06:15:26.838Z,-2.80
2022-11-20T06:16:26.802Z,-2.62
2022-11-20T06:17:26.806Z,-2.65
2022-11-20T06:18:26.793Z,-2.60
2022-11-20T06:19:26.785Z,-2.60
2022-11-20T06:20:26.806Z,-2.73
2022-11-20T06:21:26.771Z,-2.78
2022-11-20T06:22:26.765Z,-2.71
2022-11-20T06:23:26.758Z,-2.69
2022-11-20T06:24:26.747Z,-2.77
2022-11-20T06:25:26.761Z,-2.73
2022-11-20T06:26:26.734Z,-2.76
2022-11-20T06:27:26.727Z,-2.52
2022-11-20T06:28:26.719Z,-2.69
2022-11-20T06:29:30.187Z,-2.65
2022-11-20T06:30:28.723Z,-2.60
2022-11-20T06:31:26.692Z,-2.50
2022-11-20T06:32:26.689Z,-2.44
2022-11-20T06:33:26.678Z,-2.47
2022-11-20T06:34:26.674Z,-2.50
2022-11-20T06:35:26.697Z,-2.48
2022-11-20T06:36:26.663Z,-2.59
2022-11-20T06:37:26.649Z,-2.59
2022-11-20T06:38:26.640Z,-2.63
2022-11-20T06:39:26.638Z,-2.60
2022-11-20T06:40:26.651Z,-2.60
2022-11-20T06:41:26.617Z,-2.63
2022-11-20T06:42:26.611Z,-2.65
2022-11-20T06:43:26.605Z,-2.53
2022-11-20T06:44:26.607Z,-2.53
2022-11-20T06:45:26.614Z,-2.59
2022-11-20T06:46:26.584Z,-2.44
2022-11-20T06:47:26.575Z,-2.50
2022-11-20T06:48:26.569Z,-2.37
2022-11-20T06:49:26.561Z,-2.50
2022-11-20T06:50:26.582Z,-2.40
2022-11-20T06:51:26.541Z,-2.48
2022-11-20T06:52:26.538Z,-2.40
2022-11-20T06:53:26.529Z,-2.47
2022-11-20T06:54:26.522Z,-2.37
2022-11-20T06:55:26.541Z,-2.41
2022-11-20T06:56:26.507Z,-2.38
2022-11-20T06:57:26.501Z,-2.50
2022-11-20T06:58:26.494Z,-2.40
2022-11-20T06:59:26.488Z,-2.50
2022-11-20T07:00:26.508Z,-2.55
2022-11-20T07:01:26.533Z,-2.50
2022-11-20T07:02:26.464Z,-2.52
2022-11-20T07:03:26.459Z,-2.45
2022-11-20T07:04:26.448Z,-2.55
2022-11-20T07:05:26.467Z,-2.35
2022-11-20T07:06:26.435Z,-2.28
2022-11-20T07:07:26.476Z,-2.26
2022-11-20T07:08:26.425Z,-2.35
2022-11-20T07:09:26.830Z,-2.22
2022-11-20T07:10:26.426Z,-2.32
2022-11-20T07:11:26.396Z,-2.15
2022-11-20T07:12:26.384Z,-2.12
2022-11-20T07:13:26.375Z,-2.12
2022-11-20T07:14:26.359Z,-2.08
2022-11-20T07:15:27.389Z,-2.08
2022-11-20T07:16:27.360Z,-1.94
2022-11-20T07:17:26.353Z,-1.97
2022-11-20T07:18:26.345Z,-1.87
2022-11-20T07:19:26.336Z,-1.80
2022-11-20T07:20:26.355Z,-1.83
2022-11-20T07:21:26.323Z,-1.86
2022-11-20T07:22:26.313Z,-1.90
2022-11-20T07:23:26.305Z,-1.90
2022-11-20T07:24:26.296Z,-2.00
2022-11-20T07:25:26.290Z,-1.97
2022-11-20T07:26:26.306Z,-1.97
2022-11-20T07:27:26.269Z,-1.98
2022-11-20T07:28:26.265Z,-1.89
2022-11-20T07:29:26.260Z,-1.92
2022-11-20T07:30:26.282Z,-1.90
2022-11-20T07:31:26.247Z,-1.80
2022-11-20T07:32:26.238Z,-1.79
2022-11-20T07:33:26.235Z,-1.77
2022-11-20T07:34:26.223Z,-1.69
2022-11-20T07:35:26.215Z,-1.65
2022-11-20T07:36:26.229Z,-1.74
2022-11-20T07:37:26.201Z,-1.64
2022-11-20T07:38:26.191Z,-1.53
2022-11-20T07:39:26.183Z,-1.58
2022-11-20T07:40:26.176Z,-1.54
2022-11-20T07:41:26.196Z,-1.56
2022-11-20T07:42:26.157Z,-1.50
2022-11-20T07:43:26.199Z,-1.54
2022-11-20T07:44:26.146Z,-1.44
2022-11-20T07:45:26.138Z,-1.44
2022-11-20T07:46:26.160Z,-1.40
2022-11-20T07:47:26.132Z,-1.41
2022-11-20T07:48:26.117Z,-1.48
2022-11-20T07:49:26.110Z,-1.46
2022-11-20T07:50:26.148Z,-1.41
2022-11-20T07:51:26.113Z,-1.29
2022-11-20T07:52:27.087Z,-1.47
2022-11-20T07:53:26.085Z,-1.33
2022-11-20T07:54:26.072Z,-1.41
2022-11-20T07:55:26.058Z,-1.35
2022-11-20T07:56:26.078Z,-1.35
2022-11-20T07:57:28.427Z,-1.26
2022-11-20T07:58:27.037Z,-1.29
2022-11-20T07:59:26.036Z,-1.23
2022-11-20T08:00:26.193Z,-1.20
2022-11-20T08:01:26.054Z,-1.15
2022-11-20T08:02:26.014Z,-1.23
2022-11-20T08:03:26.005Z,-1.22
2022-11-20T08:04:25.995Z,-1.23
2022-11-20T08:05:25.985Z,-1.11
2022-11-20T08:06:26.008Z,-1.22
2022-11-20T08:07:26.031Z,-1.15
2022-11-20T08:08:25.964Z,-1.23
2022-11-20T08:09:25.958Z,-1.23
2022-11-20T08:10:26.029Z,-1.19
2022-11-20T08:11:25.971Z,-1.12
2022-11-20T08:12:25.936Z,-1.11
2022-11-20T08:13:25.927Z,-1.12
2022-11-20T08:14:25.914Z,-1.09
2022-11-20T08:15:25.913Z,-1.19
2022-11-20T08:16:25.927Z,-1.12
2022-11-20T08:17:25.898Z,-1.17
2022-11-20T08:18:33.381Z,-1.12
2022-11-20T08:19:27.885Z,-1.09
2022-11-20T08:20:25.875Z,-0.97
2022-11-20T08:21:25.893Z,-0.94
2022-11-20T08:22:25.865Z,-0.90
2022-11-20T08:23:25.852Z,-0.83
2022-11-20T08:24:25.849Z,-0.75
2022-11-20T08:25:25.835Z,-0.86
2022-11-20T08:26:25.858Z,-0.72
2022-11-20T08:27:25.824Z,-0.71
2022-11-20T08:28:25.821Z,-0.67
2022-11-20T08:29:25.807Z,-0.75
2022-11-20T08:30:25.800Z,-0.74
2022-11-20T08:31:25.822Z,-0.67
2022-11-20T08:32:25.779Z,-0.70
2022-11-20T08:33:25.777Z,-0.71
2022-11-20T08:34:25.770Z,-0.68
2022-11-20T08:35:25.760Z,-0.71
2022-11-20T08:36:25.782Z,-0.65
2022-11-20T08:37:25.748Z,-0.56
2022-11-20T08:38:25.741Z,-0.64
2022-11-20T08:39:25.728Z,-0.61
2022-11-20T08:40:25.731Z,-0.72
2022-11-20T08:41:25.744Z,-0.68
2022-11-20T08:42:25.709Z,-0.57
2022-11-20T08:43:25.701Z,-0.68
2022-11-20T08:44:25.694Z,-0.71
2022-11-20T08:45:28.456Z,-0.72
2022-11-20T08:46:26.699Z,-0.67
2022-11-20T08:47:25.670Z,-0.67
2022-11-20T08:48:25.661Z,-0.74
2022-11-20T08:49:25.659Z,-0.71
2022-11-20T08:50:25.647Z,-0.75
2022-11-20T08:51:25.669Z,-0.78
2022-11-20T08:52:25.634Z,-0.90
2022-11-20T08:53:25.625Z,-0.96
2022-11-20T08:54:25.618Z,-1.04
2022-11-20T08:55:25.612Z,-1.05
2022-11-20T08:56:25.632Z,-1.09
2022-11-20T08:57:25.598Z,-1.08
2022-11-20T08:58:25.590Z,-1.14
2022-11-20T09:00:03.628Z,-1.19
2022-11-20T09:00:27.574Z,-1.11
2022-11-20T09:01:25.816Z,-1.12
2022-11-20T09:02:25.563Z,-1.12
2022-11-20T09:03:29.959Z,-1.12
2022-11-20T09:04:27.549Z,-1.12
2022-11-20T09:05:25.544Z,-1.15
2022-11-20T09:06:25.556Z,-1.11
2022-11-20T09:07:25.598Z,-1.08
2022-11-20T09:08:26.517Z,-1.11
2022-11-20T09:09:25.766Z,-1.17
2022-11-20T09:10:25.675Z,-1.12
2022-11-20T09:11:25.521Z,-1.23
2022-11-20T09:12:25.495Z,-1.20
2022-11-20T09:13:25.483Z,-1.19
2022-11-20T09:14:25.476Z,-1.14
2022-11-20T09:15:25.472Z,-1.17
2022-11-20T09:16:25.490Z,-1.19
2022-11-20T09:17:25.452Z,-1.12
2022-11-20T09:18:25.444Z,-1.07
2022-11-20T09:19:41.104Z,-1.07
2022-11-20T09:20:27.428Z,-0.90
2022-11-20T09:21:25.476Z,-0.94
2022-11-20T09:22:25.413Z,-0.70
2022-11-20T09:23:25.406Z,-0.71
2022-11-20T09:24:25.398Z,-0.75
2022-11-20T09:25:25.391Z,-0.71
2022-11-20T09:26:25.406Z,-0.65
2022-11-20T09:27:25.374Z,-0.57
2022-11-20T09:28:25.364Z,-0.50
2022-11-20T09:29:25.362Z,-0.61
2022-11-20T09:30:25.355Z,-0.61
2022-11-20T09:31:25.341Z,-0.68
2022-11-20T09:32:25.358Z,-0.62
2022-11-20T09:33:25.328Z,-0.67
2022-11-20T09:34:25.323Z,-0.56
2022-11-20T09:35:25.318Z,-0.65
2022-11-20T09:36:25.307Z,-0.61
2022-11-20T09:37:25.325Z,-0.46
2022-11-20T09:38:25.297Z,-0.41
2022-11-20T09:39:25.290Z,-0.32
2022-11-20T09:40:25.281Z,-0.29
2022-11-20T09:41:25.270Z,-0.26
2022-11-20T09:42:25.287Z,-0.28
2022-11-20T09:43:25.252Z,-0.32
2022-11-20T09:44:25.248Z,-0.26
2022-11-20T09:45:25.239Z,-0.11
2022-11-20T09:46:25.232Z,-0.23
2022-11-20T09:47:25.248Z,-0.17
2022-11-20T09:48:25.215Z,-0.17
2022-11-20T09:49:30.713Z,-0.08
2022-11-20T09:50:27.192Z,-0.18
2022-11-20T09:51:25.189Z,-0.15
2022-11-20T09:52:25.215Z,-0.10
2022-11-20T09:53:25.173Z,-0.11
2022-11-20T09:54:25.170Z,-0.02
2022-11-20T09:55:25.164Z,-0.13
2022-11-20T09:56:25.154Z,-0.18
2022-11-20T09:57:25.174Z,-0.20
2022-11-20T09:58:25.141Z,-0.20
2022-11-20T09:59:25.135Z,-0.11
2022-11-20T10:00:25.127Z,-0.02
2022-11-20T10:01:25.165Z,0.07
2022-11-20T10:02:25.144Z,0.05
2022-11-20T10:03:25.105Z,0.23
2022-11-20T10:04:25.107Z,0.22
2022-11-20T10:05:25.104Z,0.21
2022-11-20T10:06:25.085Z,0.12
2022-11-20T10:07:33.299Z,0.26
2022-11-20T10:08:27.070Z,0.23
2022-11-20T10:09:25.089Z,0.32
2022-11-20T10:10:25.058Z,0.21
2022-11-20T10:11:25.052Z,0.32
2022-11-20T10:12:26.063Z,0.37
2022-11-20T10:13:25.033Z,0.43
2022-11-20T10:14:25.031Z,0.29
2022-11-20T10:15:25.014Z,0.34
2022-11-20T10:16:25.011Z,0.28
2022-11-20T10:17:25.025Z,0.34
2022-11-20T10:18:24.993Z,0.39
2022-11-20T10:19:24.982Z,0.25
2022-11-20T10:20:24.973Z,0.25
2022-11-20T10:21:24.972Z,0.25
2022-11-20T10:22:24.985Z,0.22
2022-11-20T10:23:26.166Z,0.19
2022-11-20T10:24:25.940Z,0.25
2022-11-20T10:25:24.942Z,0.34
2022-11-20T10:26:24.935Z,0.31
2022-11-20T10:27:24.945Z,0.31
2022-11-20T10:28:24.918Z,0.22
2022-11-20T10:29:25.156Z,0.37
2022-11-20T10:30:24.902Z,0.41
2022-11-20T10:31:24.894Z,0.40
2022-11-20T10:32:24.909Z,0.52
2022-11-20T10:33:24.876Z,0.65
2022-11-20T10:34:24.878Z,0.60
2022-11-20T10:35:24.865Z,0.78
2022-11-20T10:36:24.865Z,0.80
2022-11-20T10:37:24.878Z,0.76
2022-11-20T10:38:24.839Z,0.66
2022-11-20T10:39:25.064Z,0.68
2022-11-20T10:40:24.822Z,0.60
2022-11-20T10:41:24.814Z,0.66
2022-11-20T10:42:24.833Z,0.69
2022-11-20T10:43:24.802Z,0.83
2022-11-20T10:44:24.793Z,1.01
2022-11-20T10:45:24.794Z,1.08
2022-11-20T10:46:24.778Z,0.99
2022-11-20T10:47:24.795Z,1.04
2022-11-20T10:48:24.779Z,1.10
2022-11-20T10:49:24.783Z,1.17
2022-11-20T10:50:24.751Z,1.20
2022-11-20T10:51:24.742Z,1.22
2022-11-20T10:52:24.761Z,1.26
2022-11-20T10:53:24.726Z,1.38
2022-11-20T10:54:24.723Z,1.30
2022-11-20T10:55:24.712Z,1.34
2022-11-20T10:56:24.700Z,1.34
2022-11-20T10:57:24.721Z,1.35
2022-11-20T10:58:24.686Z,1.42
2022-11-20T10:59:24.892Z,1.41
2022-11-20T11:00:24.671Z,1.40
2022-11-20T11:01:24.837Z,1.30
2022-11-20T11:02:24.691Z,1.20
2022-11-20T11:03:24.646Z,1.30
2022-11-20T11:04:24.637Z,1.41
2022-11-20T11:05:24.622Z,1.38
2022-11-20T11:06:25.625Z,1.31
2022-11-20T11:07:24.715Z,1.31
2022-11-20T11:08:24.608Z,1.40
2022-11-20T11:09:24.781Z,1.38
2022-11-20T11:10:24.593Z,1.37
2022-11-20T11:11:24.595Z,1.37
2022-11-20T11:12:24.608Z,1.34
2022-11-20T11:13:24.574Z,1.35
2022-11-20T11:14:24.564Z,1.42
2022-11-20T11:15:24.559Z,1.53
2022-11-20T11:16:24.559Z,1.41
2022-11-20T11:17:24.545Z,1.45
2022-11-20T11:18:24.570Z,1.48
2022-11-20T11:19:24.902Z,1.45
2022-11-20T11:20:24.517Z,1.44
2022-11-20T11:21:24.514Z,1.44
2022-11-20T11:22:24.509Z,1.66
2022-11-20T11:23:24.524Z,1.59
2022-11-20T11:24:41.738Z,1.68
2022-11-20T11:25:26.477Z,1.73
2022-11-20T11:26:24.472Z,1.66
2022-11-20T11:27:24.463Z,1.77
2022-11-20T11:28:24.481Z,1.59
2022-11-20T11:29:24.853Z,1.78
2022-11-20T11:30:24.444Z,1.68
2022-11-20T11:31:24.438Z,1.68
2022-11-20T11:32:24.425Z,1.53
2022-11-20T11:33:24.447Z,1.59
2022-11-20T11:34:24.407Z,1.67
2022-11-20T11:35:24.402Z,1.71
2022-11-20T11:36:24.397Z,1.73
2022-11-20T11:37:24.385Z,1.71
2022-11-20T11:38:24.402Z,1.76
2022-11-20T11:39:24.898Z,1.70
2022-11-20T11:40:25.588Z,1.76
2022-11-20T11:41:24.352Z,1.77
2022-11-20T11:42:24.345Z,1.78
2022-11-20T11:43:24.360Z,1.53
2022-11-20T11:44:24.331Z,1.49
2022-11-20T11:45:24.317Z,1.45
2022-11-20T11:46:24.316Z,1.23
2022-11-20T11:47:24.326Z,1.22
2022-11-20T11:48:24.311Z,0.99
2022-11-20T11:49:25.739Z,0.99
2022-11-20T11:50:24.277Z,1.04
2022-11-20T11:51:24.267Z,0.91
2022-11-20T11:52:24.262Z,0.94
2022-11-20T11:53:24.278Z,0.94
2022-11-20T11:54:24.247Z,0.87
2022-11-20T11:55:24.239Z,0.94
2022-11-20T11:56:24.220Z,0.99
2022-11-20T11:57:24.222Z,1.02
2022-11-20T11:58:24.236Z,0.95
2022-11-20T11:59:24.600Z,0.88
2022-11-20T12:00:24.195Z,0.87
2022-11-20T12:01:24.188Z,0.81
2022-11-20T12:02:24.231Z,0.66
2022-11-20T12:03:24.201Z,0.77
2022-11-20T12:04:24.161Z,0.73
2022-11-20T12:05:24.155Z,0.78
2022-11-20T12:06:24.144Z,0.76
2022-11-20T12:07:45.469Z,0.80
2022-11-20T12:08:26.207Z,0.73
2022-11-20T12:09:24.381Z,0.62
2022-11-20T12:10:24.118Z,0.60
2022-11-20T12:11:24.109Z,0.59
2022-11-20T12:12:24.099Z,0.49
2022-11-20T12:13:24.116Z,0.46
2022-11-20T12:14:24.080Z,0.52
2022-11-20T12:15:24.079Z,0.66
2022-11-20T12:16:24.071Z,0.70
2022-11-20T12:17:24.055Z,0.78
2022-11-20T12:18:24.075Z,0.88
2022-11-20T12:19:24.264Z,0.94
2022-11-20T12:20:24.036Z,0.88
2022-11-20T12:21:24.033Z,0.96
2022-11-20T12:22:24.020Z,0.99
2022-11-20T12:23:24.040Z,0.88
2022-11-20T12:24:25.002Z,0.91
2022-11-20T12:25:23.999Z,0.99
2022-11-20T12:26:23.984Z,0.96
2022-11-20T12:27:23.986Z,0.95
2022-11-20T12:28:23.999Z,0.94
2022-11-20T12:29:24.370Z,1.10
2022-11-20T12:30:23.951Z,1.04
2022-11-20T12:31:23.943Z,1.10
2022-11-20T12:32:23.938Z,1.05
2022-11-20T12:33:23.955Z,1.17
2022-11-20T12:34:23.922Z,1.14
2022-11-20T12:35:23.922Z,1.08
2022-11-20T12:36:23.911Z,1.13
2022-11-20T12:37:23.901Z,1.14
2022-11-20T12:38:23.922Z,1.04
2022-11-20T12:39:24.233Z,1.08
2022-11-20T12:40:23.877Z,1.08
2022-11-20T12:41:23.859Z,1.05
2022-11-20T12:42:23.861Z,1.01
2022-11-20T12:43:23.850Z,1.16
2022-11-20T12:44:23.882Z,1.17
2022-11-20T12:45:23.838Z,1.17
2022-11-20T12:46:23.833Z,1.22
2022-11-20T12:47:23.823Z,1.26
2022-11-20T12:48:23.812Z,1.19
2022-11-20T12:49:24.117Z,1.20
2022-11-20T12:50:23.792Z,1.34
2022-11-20T12:51:23.784Z,1.42
2022-11-20T12:52:23.782Z,1.48
2022-11-20T12:53:23.770Z,1.55
2022-11-20T12:54:23.855Z,1.60
2022-11-20T12:55:23.751Z,1.80
2022-11-20T12:56:23.769Z,1.67
2022-11-20T12:57:23.744Z,1.70
2022-11-20T12:58:23.740Z,1.70